sensor_id;sensor_type;location;lat;lon;timestamp;pressure;altitude;pressure_sealevel;temperature;humidity
46394;BME280;32099;53.588;10.176;2023-05-29T00:01:16;101914.75;;;13.81;54.36
46394;BME280;32099;53.588;10.176;2023-05-29T00:03:44;101912.38;;;13.78;54.30
46394;BME280;32099;53.588;10.176;2023-05-29T00:06:09;101916.16;;;13.77;53.69
46394;BME280;32099;53.588;10.176;2023-05-29T00:08:35;101919.41;;;13.72;54.23
46394;BME280;32099;53.588;10.176;2023-05-29T00:11:00;101907.97;;;13.68;55.20
46394;BME280;32099;53.588;10.176;2023-05-29T00:13:26;101910.84;;;13.67;54.23
46394;BME280;32099;53.588;10.176;2023-05-29T00:15:51;101910.84;;;13.67;54.45
46394;BME280;32099;53.588;10.176;2023-05-29T00:18:17;101917.38;;;13.66;53.88
46394;BME280;32099;53.588;10.176;2023-05-29T00:20:42;101916.38;;;13.58;54.35
46394;BME280;32099;53.588;10.176;2023-05-29T00:23:07;101914.16;;;13.54;54.41
46394;BME280;32099;53.588;10.176;2023-05-29T00:25:34;101915.84;;;13.47;54.82
46394;BME280;32099;53.588;10.176;2023-05-29T00:28:00;101917.25;;;13.42;54.24
46394;BME280;32099;53.588;10.176;2023-05-29T00:30:25;101915.53;;;13.41;54.67
46394;BME280;32099;53.588;10.176;2023-05-29T00:32:51;101928.56;;;13.39;54.49
46394;BME280;32099;53.588;10.176;2023-05-29T00:35:17;101927.84;;;13.37;55.17
46394;BME280;32099;53.588;10.176;2023-05-29T00:37:42;101937.44;;;13.33;55.17
46394;BME280;32099;53.588;10.176;2023-05-29T00:40:08;101935.22;;;13.29;55.11
46394;BME280;32099;53.588;10.176;2023-05-29T00:42:34;101946.34;;;13.27;54.74
46394;BME280;32099;53.588;10.176;2023-05-29T00:44:59;101942.06;;;13.16;55.14
46394;BME280;32099;53.588;10.176;2023-05-29T00:47:24;101947.53;;;13.08;55.24
46394;BME280;32099;53.588;10.176;2023-05-29T00:49:50;101953.00;;;13.00;56.24
46394;BME280;32099;53.588;10.176;2023-05-29T00:52:17;101960.34;;;12.91;55.86
46394;BME280;32099;53.588;10.176;2023-05-29T00:54:43;101959.84;;;12.87;55.95
46394;BME280;32099;53.588;10.176;2023-05-29T00:57:10;101969.75;;;12.80;56.10
46394;BME280;32099;53.588;10.176;2023-05-29T00:59:37;101970.59;;;12.72;56.84
46394;BME280;32099;53.588;10.176;2023-05-29T01:02:04;101972.13;;;12.67;56.19
46394;BME280;32099;53.588;10.176;2023-05-29T01:04:31;101984.06;;;12.57;56.20
46394;BME280;32099;53.588;10.176;2023-05-29T01:06:59;101983.34;;;12.47;56.55
46394;BME280;32099;53.588;10.176;2023-05-29T01:09:27;101989.84;;;12.46;57.39
46394;BME280;32099;53.588;10.176;2023-05-29T01:14:52;101993.19;;;12.31;57.04
46394;BME280;32099;53.588;10.176;2023-05-29T01:20:09;101997.63;;;12.24;57.06
46394;BME280;32099;53.588;10.176;2023-05-29T01:22:53;101999.47;;;12.24;57.16
46394;BME280;32099;53.588;10.176;2023-05-29T01:25:34;101994.69;;;12.17;56.55
46394;BME280;32099;53.588;10.176;2023-05-29T01:28:19;101988.81;;;12.12;57.19
46394;BME280;32099;53.588;10.176;2023-05-29T01:30:47;101989.31;;;12.08;56.84
46394;BME280;32099;53.588;10.176;2023-05-29T01:33:14;101987.25;;;12.01;57.43
46394;BME280;32099;53.588;10.176;2023-05-29T01:35:39;101988.16;;;11.92;57.23
46394;BME280;32099;53.588;10.176;2023-05-29T01:38:04;101986.94;;;11.86;57.76
46394;BME280;32099;53.588;10.176;2023-05-29T01:40:30;101986.56;;;11.81;57.37
46394;BME280;32099;53.588;10.176;2023-05-29T01:42:55;101987.91;;;11.77;57.58
46394;BME280;32099;53.588;10.176;2023-05-29T01:45:21;101990.94;;;11.74;57.69
46394;BME280;32099;53.588;10.176;2023-05-29T01:47:46;101989.56;;;11.70;57.46
46394;BME280;32099;53.588;10.176;2023-05-29T01:50:11;101988.16;;;11.66;57.25
46394;BME280;32099;53.588;10.176;2023-05-29T01:52:40;101988.66;;;11.61;57.39
46394;BME280;32099;53.588;10.176;2023-05-29T01:55:05;101981.78;;;11.57;57.47
46394;BME280;32099;53.588;10.176;2023-05-29T01:57:31;101997.50;;;11.55;57.60
46394;BME280;32099;53.588;10.176;2023-05-29T01:59:57;101986.66;;;11.45;58.14
46394;BME280;32099;53.588;10.176;2023-05-29T02:02:23;101991.91;;;11.38;58.04
46394;BME280;32099;53.588;10.176;2023-05-29T02:04:48;101994.94;;;11.35;58.06
46394;BME280;32099;53.588;10.176;2023-05-29T02:07:13;101998.84;;;11.33;58.30
46394;BME280;32099;53.588;10.176;2023-05-29T02:09:40;101992.69;;;11.31;58.34
46394;BME280;32099;53.588;10.176;2023-05-29T02:12:06;101990.13;;;11.29;58.46
46394;BME280;32099;53.588;10.176;2023-05-29T02:14:32;101988.41;;;11.28;58.44
46394;BME280;32099;53.588;10.176;2023-05-29T02:16:58;101993.47;;;11.23;58.35
46394;BME280;32099;53.588;10.176;2023-05-29T02:19:23;101996.84;;;11.17;58.64
46394;BME280;32099;53.588;10.176;2023-05-29T02:21:50;101993.38;;;11.15;58.45
46394;BME280;32099;53.588;10.176;2023-05-29T02:24:15;101990.44;;;11.08;58.87
46394;BME280;32099;53.588;10.176;2023-05-29T02:26:41;101990.19;;;11.01;58.83
46394;BME280;32099;53.588;10.176;2023-05-29T02:29:07;101996.81;;;10.99;59.25
46394;BME280;32099;53.588;10.176;2023-05-29T02:31:32;102000.19;;;10.92;59.32
46394;BME280;32099;53.588;10.176;2023-05-29T02:33:58;101996.75;;;10.90;59.43
46394;BME280;32099;53.588;10.176;2023-05-29T02:36:23;101988.88;;;10.87;59.01
46394;BME280;32099;53.588;10.176;2023-05-29T02:38:49;101992.59;;;10.86;59.07
46394;BME280;32099;53.588;10.176;2023-05-29T02:41:14;101989.63;;;10.79;59.33
46394;BME280;32099;53.588;10.176;2023-05-29T02:43:40;101984.81;;;10.73;59.10
46394;BME280;32099;53.588;10.176;2023-05-29T02:46:05;101992.28;;;10.71;59.17
46394;BME280;32099;53.588;10.176;2023-05-29T02:48:30;101983.69;;;10.66;59.36
46394;BME280;32099;53.588;10.176;2023-05-29T02:50:56;101984.16;;;10.61;59.46
46394;BME280;32099;53.588;10.176;2023-05-29T02:53:21;101986.16;;;10.59;59.22
46394;BME280;32099;53.588;10.176;2023-05-29T02:55:46;101989.94;;;10.58;59.76
46394;BME280;32099;53.588;10.176;2023-05-29T02:58:13;101994.97;;;10.53;59.47
46394;BME280;32099;53.588;10.176;2023-05-29T03:00:38;101998.00;;;10.50;58.76
46394;BME280;32099;53.588;10.176;2023-05-29T03:03:03;101994.72;;;10.46;59.61
46394;BME280;32099;53.588;10.176;2023-05-29T03:05:29;101997.75;;;10.43;59.70
46394;BME280;32099;53.588;10.176;2023-05-29T03:07:55;102005.53;;;10.38;59.90
46394;BME280;32099;53.588;10.176;2023-05-29T03:10:20;102005.09;;;10.33;59.91
46394;BME280;32099;53.588;10.176;2023-05-29T03:12:46;102009.81;;;10.31;60.75
46394;BME280;32099;53.588;10.176;2023-05-29T03:15:11;102009.28;;;10.27;59.82
46394;BME280;32099;53.588;10.176;2023-05-29T03:17:36;101998.97;;;10.21;60.09
46394;BME280;32099;53.588;10.176;2023-05-29T03:20:03;102007.72;;;10.25;60.17
46394;BME280;32099;53.588;10.176;2023-05-29T03:22:30;102003.44;;;10.22;60.30
46394;BME280;32099;53.588;10.176;2023-05-29T03:24:56;102008.16;;;10.20;60.17
46394;BME280;32099;53.588;10.176;2023-05-29T03:27:21;102000.13;;;10.18;60.24
46394;BME280;32099;53.588;10.176;2023-05-29T03:29:47;102000.81;;;10.21;60.50
46394;BME280;32099;53.588;10.176;2023-05-29T03:32:12;101999.09;;;10.19;60.59
46394;BME280;32099;53.588;10.176;2023-05-29T03:34:37;102009.16;;;10.19;60.06
46394;BME280;32099;53.588;10.176;2023-05-29T03:37:02;102002.84;;;10.18;60.60
46394;BME280;32099;53.588;10.176;2023-05-29T03:39:28;102003.16;;;10.15;60.36
46394;BME280;32099;53.588;10.176;2023-05-29T03:41:53;102001.44;;;10.14;60.63
46394;BME280;32099;53.588;10.176;2023-05-29T03:44:19;101999.88;;;10.12;61.36
46394;BME280;32099;53.588;10.176;2023-05-29T03:46:44;102012.09;;;10.08;60.65
46394;BME280;32099;53.588;10.176;2023-05-29T03:49:09;102009.34;;;10.08;60.87
46394;BME280;32099;53.588;10.176;2023-05-29T03:51:35;102013.09;;;10.07;60.88
46394;BME280;32099;53.588;10.176;2023-05-29T03:54:01;102003.91;;;10.08;60.34
46394;BME280;32099;53.588;10.176;2023-05-29T03:56:26;102012.63;;;10.11;60.80
46394;BME280;32099;53.588;10.176;2023-05-29T03:58:51;102012.34;;;10.14;60.58
46394;BME280;32099;53.588;10.176;2023-05-29T04:01:17;102009.47;;;10.16;60.76
46394;BME280;32099;53.588;10.176;2023-05-29T04:03:42;102023.09;;;10.16;60.38
46394;BME280;32099;53.588;10.176;2023-05-29T04:06:08;102022.38;;;10.14;61.21
46394;BME280;32099;53.588;10.176;2023-05-29T04:08:34;102025.97;;;10.14;61.03
46394;BME280;32099;53.588;10.176;2023-05-29T04:10:59;102028.41;;;10.17;61.05
46394;BME280;32099;53.588;10.176;2023-05-29T04:13:24;102025.97;;;10.14;60.77
46394;BME280;32099;53.588;10.176;2023-05-29T04:15:50;102024.97;;;10.15;61.12
46394;BME280;32099;53.588;10.176;2023-05-29T04:18:18;102024.81;;;10.17;60.66
46394;BME280;32099;53.588;10.176;2023-05-29T04:20:44;102036.00;;;10.14;60.55
46394;BME280;32099;53.588;10.176;2023-05-29T04:23:12;102037.16;;;10.11;60.67
46394;BME280;32099;53.588;10.176;2023-05-29T04:25:37;102036.31;;;10.11;62.38
46394;BME280;32099;53.588;10.176;2023-05-29T04:28:02;102039.91;;;10.11;61.14
46394;BME280;32099;53.588;10.176;2023-05-29T04:30:28;102055.53;;;10.09;61.00
46394;BME280;32099;53.588;10.176;2023-05-29T04:32:53;102048.94;;;10.12;60.97
46394;BME280;32099;53.588;10.176;2023-05-29T04:35:19;102039.44;;;10.16;61.22
46394;BME280;32099;53.588;10.176;2023-05-29T04:37:44;102049.06;;;10.20;62.69
46394;BME280;32099;53.588;10.176;2023-05-29T04:40:11;102046.88;;;10.24;61.46
46394;BME280;32099;53.588;10.176;2023-05-29T04:42:36;102033.53;;;10.21;60.54
46394;BME280;32099;53.588;10.176;2023-05-29T04:45:03;102050.47;;;10.24;60.55
46394;BME280;32099;53.588;10.176;2023-05-29T04:47:32;102043.16;;;10.25;61.25
46394;BME280;32099;53.588;10.176;2023-05-29T04:50:01;102041.84;;;10.29;61.63
46394;BME280;32099;53.588;10.176;2023-05-29T04:52:27;102054.88;;;10.35;60.85
46394;BME280;32099;53.588;10.176;2023-05-29T04:54:53;102054.72;;;10.37;61.15
46394;BME280;32099;53.588;10.176;2023-05-29T04:57:19;102062.81;;;10.38;60.77
46394;BME280;32099;53.588;10.176;2023-05-29T04:59:45;102065.91;;;10.43;60.57
46394;BME280;32099;53.588;10.176;2023-05-29T05:02:10;102067.50;;;10.46;61.43
46394;BME280;32099;53.588;10.176;2023-05-29T05:04:35;102063.63;;;10.48;62.73
46394;BME280;32099;53.588;10.176;2023-05-29T05:07:01;102071.03;;;10.56;60.89
46394;BME280;32099;53.588;10.176;2023-05-29T05:09:28;102067.25;;;10.67;60.59
46394;BME280;32099;53.588;10.176;2023-05-29T05:11:53;102068.50;;;10.73;60.27
46394;BME280;32099;53.588;10.176;2023-05-29T05:14:18;102069.06;;;10.76;60.17
46394;BME280;32099;53.588;10.176;2023-05-29T05:16:44;102074.47;;;10.86;60.50
46394;BME280;32099;53.588;10.176;2023-05-29T05:19:09;102073.25;;;10.99;60.56
46394;BME280;32099;53.588;10.176;2023-05-29T05:21:34;102079.13;;;11.04;60.14
46394;BME280;32099;53.588;10.176;2023-05-29T05:24:00;102077.78;;;11.08;59.28
46394;BME280;32099;53.588;10.176;2023-05-29T05:26:25;102081.22;;;11.10;61.00
46394;BME280;32099;53.588;10.176;2023-05-29T05:28:51;102071.84;;;11.13;59.44
46394;BME280;32099;53.588;10.176;2023-05-29T05:31:16;102072.97;;;11.20;59.23
46394;BME280;32099;53.588;10.176;2023-05-29T05:33:42;102070.63;;;11.25;60.07
46394;BME280;32099;53.588;10.176;2023-05-29T05:36:07;102073.13;;;11.36;59.35
46394;BME280;32099;53.588;10.176;2023-05-29T05:38:32;102066.81;;;11.54;58.90
46394;BME280;32099;53.588;10.176;2023-05-29T05:40:58;102069.34;;;11.73;58.18
46394;BME280;32099;53.588;10.176;2023-05-29T05:43:23;102078.00;;;11.87;57.56
46394;BME280;32099;53.588;10.176;2023-05-29T05:45:49;102072.66;;;12.03;57.67
46394;BME280;32099;53.588;10.176;2023-05-29T05:48:14;102080.69;;;12.23;57.38
46394;BME280;32099;53.588;10.176;2023-05-29T05:50:39;102070.69;;;12.40;56.45
46394;BME280;32099;53.588;10.176;2023-05-29T05:53:05;102065.28;;;12.57;56.29
46394;BME280;32099;53.588;10.176;2023-05-29T05:55:30;102069.47;;;12.77;56.21
46394;BME280;32099;53.588;10.176;2023-05-29T05:57:56;102063.34;;;12.92;55.52
46394;BME280;32099;53.588;10.176;2023-05-29T06:00:22;102060.69;;;13.08;55.59
46394;BME280;32099;53.588;10.176;2023-05-29T06:02:48;102060.34;;;13.20;55.19
46394;BME280;32099;53.588;10.176;2023-05-29T06:05:13;102061.72;;;13.24;55.32
46394;BME280;32099;53.588;10.176;2023-05-29T06:07:39;102062.91;;;13.30;55.22
46394;BME280;32099;53.588;10.176;2023-05-29T06:10:04;102067.03;;;13.34;54.97
46394;BME280;32099;53.588;10.176;2023-05-29T06:12:30;102072.00;;;13.38;55.43
46394;BME280;32099;53.588;10.176;2023-05-29T06:14:55;102070.50;;;13.52;55.38
46394;BME280;32099;53.588;10.176;2023-05-29T06:17:20;102072.59;;;13.58;55.08
46394;BME280;32099;53.588;10.176;2023-05-29T06:19:46;102080.66;;;13.68;55.04
46394;BME280;32099;53.588;10.176;2023-05-29T06:22:11;102068.28;;;13.81;54.38
46394;BME280;32099;53.588;10.176;2023-05-29T06:24:37;102074.59;;;13.98;53.93
46394;BME280;32099;53.588;10.176;2023-05-29T06:27:02;102072.72;;;14.15;53.08
46394;BME280;32099;53.588;10.176;2023-05-29T06:29:28;102063.59;;;14.23;52.55
46394;BME280;32099;53.588;10.176;2023-05-29T06:31:53;102064.13;;;14.26;54.01
46394;BME280;32099;53.588;10.176;2023-05-29T06:34:18;102066.44;;;14.46;54.58
46394;BME280;32099;53.588;10.176;2023-05-29T06:36:44;102060.03;;;14.62;52.50
46394;BME280;32099;53.588;10.176;2023-05-29T06:39:09;102070.66;;;14.73;52.73
46394;BME280;32099;53.588;10.176;2023-05-29T06:41:35;102076.25;;;14.88;52.89
46394;BME280;32099;53.588;10.176;2023-05-29T06:44:00;102085.94;;;15.07;52.88
46394;BME280;32099;53.588;10.176;2023-05-29T06:46:25;102070.22;;;15.24;51.47
46394;BME280;32099;53.588;10.176;2023-05-29T06:48:51;102066.34;;;15.34;50.15
46394;BME280;32099;53.588;10.176;2023-05-29T06:51:17;102064.91;;;15.46;51.43
46394;BME280;32099;53.588;10.176;2023-05-29T06:53:42;102059.63;;;15.60;50.82
46394;BME280;32099;53.588;10.176;2023-05-29T06:56:07;102078.25;;;15.72;51.33
46394;BME280;32099;53.588;10.176;2023-05-29T06:58:33;102074.38;;;15.82;49.25
46394;BME280;32099;53.588;10.176;2023-05-29T07:00:59;102071.81;;;15.80;50.30
46394;BME280;32099;53.588;10.176;2023-05-29T07:03:27;102078.84;;;15.83;49.81
46394;BME280;32099;53.588;10.176;2023-05-29T07:05:53;102082.31;;;15.85;50.39
46394;BME280;32099;53.588;10.176;2023-05-29T07:08:18;102081.69;;;15.98;49.92
46394;BME280;32099;53.588;10.176;2023-05-29T07:10:44;102080.56;;;16.07;48.54
46394;BME280;32099;53.588;10.176;2023-05-29T07:13:09;102086.41;;;15.89;48.87
46394;BME280;32099;53.588;10.176;2023-05-29T07:15:37;102089.16;;;15.89;49.26
46394;BME280;32099;53.588;10.176;2023-05-29T07:18:02;102089.81;;;15.91;50.78
46394;BME280;32099;53.588;10.176;2023-05-29T07:20:27;102080.38;;;16.09;49.58
46394;BME280;32099;53.588;10.176;2023-05-29T07:22:52;102083.69;;;16.34;50.14
46394;BME280;32099;53.588;10.176;2023-05-29T07:25:18;102101.28;;;16.63;49.04
46394;BME280;32099;53.588;10.176;2023-05-29T07:27:43;102096.78;;;16.77;48.41
46394;BME280;32099;53.588;10.176;2023-05-29T07:30:08;102101.56;;;16.83;47.13
46394;BME280;32099;53.588;10.176;2023-05-29T07:32:35;102098.59;;;16.85;48.20
46394;BME280;32099;53.588;10.176;2023-05-29T07:35:00;102117.50;;;17.03;48.76
46394;BME280;32099;53.588;10.176;2023-05-29T07:37:25;102112.81;;;17.18;47.85
46394;BME280;32099;53.588;10.176;2023-05-29T07:39:51;102110.03;;;17.33;47.03
46394;BME280;32099;53.588;10.176;2023-05-29T07:42:16;102103.94;;;17.60;46.58
46394;BME280;32099;53.588;10.176;2023-05-29T07:44:41;102097.63;;;17.87;45.99
46394;BME280;32099;53.588;10.176;2023-05-29T07:47:07;102105.09;;;17.94;45.39
46394;BME280;32099;53.588;10.176;2023-05-29T07:49:33;102102.25;;;17.87;45.58
46394;BME280;32099;53.588;10.176;2023-05-29T07:51:58;102095.09;;;17.93;45.79
46394;BME280;32099;53.588;10.176;2023-05-29T07:54:24;102103.53;;;18.06;46.31
46394;BME280;32099;53.588;10.176;2023-05-29T07:56:49;102094.06;;;18.22;45.83
46394;BME280;32099;53.588;10.176;2023-05-29T07:59:15;102097.16;;;18.41;44.99
46394;BME280;32099;53.588;10.176;2023-05-29T08:01:40;102104.91;;;18.52;44.43
46394;BME280;32099;53.588;10.176;2023-05-29T08:04:05;102095.88;;;18.72;43.79
46394;BME280;32099;53.588;10.176;2023-05-29T08:06:31;102102.97;;;18.88;43.45
46394;BME280;32099;53.588;10.176;2023-05-29T08:08:59;102098.75;;;18.99;43.23
46394;BME280;32099;53.588;10.176;2023-05-29T08:11:24;102103.25;;;19.06;43.22
46394;BME280;32099;53.588;10.176;2023-05-29T08:13:50;102107.34;;;19.17;43.80
46394;BME280;32099;53.588;10.176;2023-05-29T08:16:15;102099.97;;;19.38;43.29
46394;BME280;32099;53.588;10.176;2023-05-29T08:18:41;102110.41;;;19.49;43.27
46394;BME280;32099;53.588;10.176;2023-05-29T08:21:07;102112.13;;;19.57;42.91
46394;BME280;32099;53.588;10.176;2023-05-29T08:23:34;102112.75;;;19.52;43.32
46394;BME280;32099;53.588;10.176;2023-05-29T08:25:59;102105.28;;;19.46;43.47
46394;BME280;32099;53.588;10.176;2023-05-29T08:28:25;102102.75;;;19.51;43.38
46394;BME280;32099;53.588;10.176;2023-05-29T08:30:52;102094.88;;;19.55;43.33
46394;BME280;32099;53.588;10.176;2023-05-29T08:33:17;102097.25;;;19.65;43.43
46394;BME280;32099;53.588;10.176;2023-05-29T08:35:42;102094.50;;;19.78;42.93
46394;BME280;32099;53.588;10.176;2023-05-29T08:38:08;102093.00;;;19.82;41.69
46394;BME280;32099;53.588;10.176;2023-05-29T08:40:33;102092.19;;;19.95;42.00
46394;BME280;32099;53.588;10.176;2023-05-29T08:46:02;102096.84;;;20.15;41.25
46394;BME280;32099;53.588;10.176;2023-05-29T08:48:29;102091.50;;;20.27;41.34
46394;BME280;32099;53.588;10.176;2023-05-29T08:50:55;102092.53;;;20.46;41.73
46394;BME280;32099;53.588;10.176;2023-05-29T08:53:22;102102.28;;;20.75;41.16
46394;BME280;32099;53.588;10.176;2023-05-29T08:55:49;102098.84;;;20.80;40.66
46394;BME280;32099;53.588;10.176;2023-05-29T08:58:18;102101.22;;;20.76;40.54
46394;BME280;32099;53.588;10.176;2023-05-29T09:00:45;102107.16;;;20.73;38.76
46394;BME280;32099;53.588;10.176;2023-05-29T09:03:11;102110.69;;;20.28;41.68
46394;BME280;32099;53.588;10.176;2023-05-29T09:05:38;102106.00;;;20.15;41.80
46394;BME280;32099;53.588;10.176;2023-05-29T09:08:05;102106.19;;;20.47;41.44
46394;BME280;32099;53.588;10.176;2023-05-29T09:10:32;102096.94;;;20.80;40.84
46394;BME280;32099;53.588;10.176;2023-05-29T09:12:58;102114.38;;;20.94;39.73
46394;BME280;32099;53.588;10.176;2023-05-29T09:15:24;102106.22;;;21.00;38.61
46394;BME280;32099;53.588;10.176;2023-05-29T09:17:53;102108.69;;;21.21;38.43
46394;BME280;32099;53.588;10.176;2023-05-29T09:20:19;102109.63;;;21.40;39.66
46394;BME280;32099;53.588;10.176;2023-05-29T09:25:34;102116.84;;;21.80;38.95
46394;BME280;32099;53.588;10.176;2023-05-29T09:28:05;102102.88;;;21.94;38.95
46394;BME280;32099;53.588;10.176;2023-05-29T09:30:43;102103.84;;;22.06;38.51
46394;BME280;32099;53.588;10.176;2023-05-29T09:33:10;102103.16;;;22.11;38.13
46394;BME280;32099;53.588;10.176;2023-05-29T09:35:37;102112.81;;;22.27;37.88
46394;BME280;32099;53.588;10.176;2023-05-29T09:38:04;102117.72;;;22.31;37.18
46394;BME280;32099;53.588;10.176;2023-05-29T09:40:32;102114.31;;;22.29;37.95
46394;BME280;32099;53.588;10.176;2023-05-29T09:43:06;102112.16;;;22.31;37.99
46394;BME280;32099;53.588;10.176;2023-05-29T09:45:38;102112.94;;;22.39;38.36
46394;BME280;32099;53.588;10.176;2023-05-29T09:48:07;102110.34;;;22.44;37.63
46394;BME280;32099;53.588;10.176;2023-05-29T09:50:36;102114.59;;;22.46;38.69
46394;BME280;32099;53.588;10.176;2023-05-29T09:53:02;102105.44;;;22.64;38.33
46394;BME280;32099;53.588;10.176;2023-05-29T09:55:28;102106.72;;;22.80;37.63
46394;BME280;32099;53.588;10.176;2023-05-29T09:57:56;102105.50;;;22.95;38.14
46394;BME280;32099;53.588;10.176;2023-05-29T10:00:22;102107.78;;;22.98;36.05
46394;BME280;32099;53.588;10.176;2023-05-29T10:02:48;102107.03;;;22.91;36.17
46394;BME280;32099;53.588;10.176;2023-05-29T10:05:13;102098.78;;;22.84;36.85
46394;BME280;32099;53.588;10.176;2023-05-29T10:07:42;102102.31;;;22.91;36.58
46394;BME280;32099;53.588;10.176;2023-05-29T10:10:09;102105.00;;;22.98;35.54
46394;BME280;32099;53.588;10.176;2023-05-29T10:12:36;102098.72;;;23.03;36.41
46394;BME280;32099;53.588;10.176;2023-05-29T10:15:05;102089.31;;;23.04;35.80
46394;BME280;32099;53.588;10.176;2023-05-29T10:17:35;102094.66;;;23.05;36.70
46394;BME280;32099;53.588;10.176;2023-05-29T10:20:03;102080.13;;;23.03;36.83
46394;BME280;32099;53.588;10.176;2023-05-29T10:22:31;102085.91;;;23.02;37.51
46394;BME280;32099;53.588;10.176;2023-05-29T10:24:57;102088.00;;;23.06;36.96
46394;BME280;32099;53.588;10.176;2023-05-29T10:27:23;102083.19;;;23.14;37.37
46394;BME280;32099;53.588;10.176;2023-05-29T10:32:41;102082.84;;;22.91;36.25
46394;BME280;32099;53.588;10.176;2023-05-29T10:35:30;102074.03;;;22.94;36.84
46394;BME280;32099;53.588;10.176;2023-05-29T10:38:11;102071.53;;;23.05;36.46
46394;BME280;32099;53.588;10.176;2023-05-29T10:40:38;102069.28;;;23.14;36.17
46394;BME280;32099;53.588;10.176;2023-05-29T10:43:04;102067.75;;;23.18;36.73
46394;BME280;32099;53.588;10.176;2023-05-29T10:50:35;102070.72;;;22.86;35.10
46394;BME280;32099;53.588;10.176;2023-05-29T10:53:01;102074.19;;;22.81;36.76
46394;BME280;32099;53.588;10.176;2023-05-29T10:55:34;102076.22;;;22.74;35.34
46394;BME280;32099;53.588;10.176;2023-05-29T10:58:04;102069.28;;;22.64;36.29
46394;BME280;32099;53.588;10.176;2023-05-29T11:00:30;102069.88;;;22.67;37.23
46394;BME280;32099;53.588;10.176;2023-05-29T11:02:55;102062.53;;;22.72;37.49
46394;BME280;32099;53.588;10.176;2023-05-29T11:05:21;102069.41;;;22.70;36.95
46394;BME280;32099;53.588;10.176;2023-05-29T11:07:55;102058.31;;;22.51;36.05
46394;BME280;32099;53.588;10.176;2023-05-29T11:10:42;102068.88;;;22.61;36.54
46394;BME280;32099;53.588;10.176;2023-05-29T11:13:08;102060.72;;;22.66;35.71
46394;BME280;32099;53.588;10.176;2023-05-29T11:15:34;102055.78;;;22.68;37.22
46394;BME280;32099;53.588;10.176;2023-05-29T11:18:07;102057.09;;;22.65;36.29
46394;BME280;32099;53.588;10.176;2023-05-29T11:25:23;102055.81;;;22.80;34.09
46394;BME280;32099;53.588;10.176;2023-05-29T11:27:48;102049.19;;;22.81;36.03
46394;BME280;32099;53.588;10.176;2023-05-29T11:30:15;102043.16;;;22.84;37.65
46394;BME280;32099;53.588;10.176;2023-05-29T11:32:40;102058.31;;;22.88;37.69
46394;BME280;32099;53.588;10.176;2023-05-29T11:35:10;102050.34;;;22.92;36.13
46394;BME280;32099;53.588;10.176;2023-05-29T11:37:35;102044.16;;;22.90;35.25
46394;BME280;32099;53.588;10.176;2023-05-29T11:40:06;102045.84;;;22.91;36.28
46394;BME280;32099;53.588;10.176;2023-05-29T11:42:36;102045.06;;;23.02;37.02
46394;BME280;32099;53.588;10.176;2023-05-29T11:45:11;102045.88;;;23.03;35.78
46394;BME280;32099;53.588;10.176;2023-05-29T11:47:56;102041.41;;;23.02;34.36
46394;BME280;32099;53.588;10.176;2023-05-29T11:50:23;102035.56;;;22.91;35.96
46394;BME280;32099;53.588;10.176;2023-05-29T11:52:50;102047.47;;;22.80;35.58
46394;BME280;32099;53.588;10.176;2023-05-29T11:55:17;102047.22;;;22.51;35.20
46394;BME280;32099;53.588;10.176;2023-05-29T11:57:46;102065.28;;;22.42;36.18
46394;BME280;32099;53.588;10.176;2023-05-29T12:00:13;102055.47;;;22.58;36.58
46394;BME280;32099;53.588;10.176;2023-05-29T12:02:39;102046.63;;;22.79;35.39
46394;BME280;32099;53.588;10.176;2023-05-29T12:05:07;102044.41;;;22.88;37.11
46394;BME280;32099;53.588;10.176;2023-05-29T12:07:33;102037.03;;;22.94;35.85
46394;BME280;32099;53.588;10.176;2023-05-29T12:10:11;102044.19;;;23.02;35.22
46394;BME280;32099;53.588;10.176;2023-05-29T12:12:37;102046.41;;;23.11;34.70
46394;BME280;32099;53.588;10.176;2023-05-29T12:15:04;102046.09;;;23.20;34.88
46394;BME280;32099;53.588;10.176;2023-05-29T12:17:31;102039.25;;;23.34;34.06
46394;BME280;32099;53.588;10.176;2023-05-29T12:19:57;102048.22;;;23.36;34.13
46394;BME280;32099;53.588;10.176;2023-05-29T12:22:38;102045.53;;;23.30;29.86
46394;BME280;32099;53.588;10.176;2023-05-29T12:27:33;102028.50;;;23.38;34.00
46394;BME280;32099;53.588;10.176;2023-05-29T12:30:02;102038.06;;;23.54;34.11
46394;BME280;32099;53.588;10.176;2023-05-29T12:32:35;102035.06;;;23.67;34.51
46394;BME280;32099;53.588;10.176;2023-05-29T12:37:35;102033.75;;;23.82;32.91
46394;BME280;32099;53.588;10.176;2023-05-29T12:40:16;102040.06;;;23.89;34.36
46394;BME280;32099;53.588;10.176;2023-05-29T12:42:43;102029.44;;;23.98;34.85
46394;BME280;32099;53.588;10.176;2023-05-29T12:45:09;102027.72;;;24.21;33.59
46394;BME280;32099;53.588;10.176;2023-05-29T12:47:36;102022.59;;;24.41;34.11
46394;BME280;32099;53.588;10.176;2023-05-29T12:50:19;102022.06;;;24.56;33.78
46394;BME280;32099;53.588;10.176;2023-05-29T12:53:00;102013.56;;;24.63;33.71
46394;BME280;32099;53.588;10.176;2023-05-29T12:55:27;102015.78;;;24.49;33.67
46394;BME280;32099;53.588;10.176;2023-05-29T12:57:58;102005.13;;;24.46;33.10
46394;BME280;32099;53.588;10.176;2023-05-29T13:00:23;102008.50;;;24.60;32.95
46394;BME280;32099;53.588;10.176;2023-05-29T13:02:49;102012.69;;;24.74;32.05
46394;BME280;32099;53.588;10.176;2023-05-29T13:05:14;102005.81;;;24.77;34.16
46394;BME280;32099;53.588;10.176;2023-05-29T13:07:41;102005.13;;;24.87;33.61